createdAt,value
2022-12-09T00:01:48.119Z,21.17
2022-12-09T00:07:18.428Z,21.38
2022-12-09T00:12:36.520Z,22.88
2022-12-09T00:17:46.914Z,22.10
2022-12-09T00:23:11.692Z,19.88
2022-12-09T00:28:28.499Z,20.50
2022-12-09T00:33:42.105Z,20.38
2022-12-09T00:38:49.071Z,21.10
2022-12-09T00:44:18.161Z,21.92
2022-12-09T00:49:24.772Z,21.52
2022-12-09T00:55:11.879Z,19.42
2022-12-09T01:00:18.924Z,18.70
2022-12-09T01:05:14.518Z,18.80
2022-12-09T01:10:11.652Z,18.67
2022-12-09T01:15:10.102Z,17.70
2022-12-09T01:20:06.537Z,18.23
2022-12-09T01:25:05.904Z,16.48
2022-12-09T01:30:03.202Z,15.40
2022-12-09T01:35:03.366Z,14.30
2022-12-09T01:40:48.459Z,14.63
2022-12-09T02:00:11.671Z,15.10
2022-12-09T02:06:38.454Z,14.55
2022-12-09T02:11:49.442Z,22.83
2022-12-09T02:16:57.925Z,19.38
2022-12-09T02:22:19.303Z,29.17
2022-12-09T02:27:37.179Z,17.90
2022-12-09T02:33:15.538Z,17.70
2022-12-09T02:38:28.848Z,14.75
2022-12-09T02:43:49.444Z,14.80
2022-12-09T02:49:08.682Z,12.60
2022-12-09T02:54:15.901Z,13.43
2022-12-09T02:59:24.580Z,13.48
2022-12-09T03:04:30.710Z,12.93
2022-12-09T03:09:31.484Z,15.88
2022-12-09T03:14:31.366Z,15.63
2022-12-09T03:19:40.163Z,14.88
2022-12-09T03:24:40.792Z,17.02
2022-12-09T03:34:51.227Z,21.23
2022-12-09T03:39:53.258Z,13.20
2022-12-09T03:44:54.397Z,15.63
2022-12-09T03:49:48.687Z,16.33
2022-12-09T03:54:50.294Z,17.70
2022-12-09T03:59:48.938Z,16.42
2022-12-09T04:04:43.912Z,13.98
2022-12-09T04:10:09.561Z,14.32
2022-12-09T04:15:47.548Z,14.38
2022-12-09T04:20:46.722Z,15.63
2022-12-09T04:25:51.793Z,18.02
2022-12-09T04:30:55.340Z,14.90
2022-12-09T04:36:12.574Z,14.13
2022-12-09T04:41:21.647Z,15.77
2022-12-09T04:46:18.717Z,13.95
2022-12-09T04:51:40.288Z,16.92
2022-12-09T04:56:55.207Z,14.68
2022-12-09T05:01:56.091Z,14.23
2022-12-09T05:07:13.879Z,13.70
2022-12-09T05:12:15.199Z,16.42
2022-12-09T05:17:22.850Z,15.25
2022-12-09T05:27:58.930Z,15.48
2022-12-09T05:35:24.527Z,12.15
2022-12-09T05:53:32.220Z,14.25
2022-12-09T05:57:57.445Z,15.10
2022-12-09T06:04:28.749Z,20.45
2022-12-09T06:15:58.146Z,21.20
2022-12-09T06:21:31.717Z,16.15
2022-12-09T06:27:30.348Z,22.52
2022-12-09T06:50:45.257Z,11.73
2022-12-09T06:55:38.558Z,14.10
2022-12-09T07:00:33.448Z,9.50
2022-12-09T07:05:27.815Z,9.63
2022-12-09T07:10:22.933Z,11.13
2022-12-09T07:15:16.512Z,14.05
2022-12-09T07:20:11.321Z,13.80
2022-12-09T07:25:06.103Z,13.02
2022-12-09T07:30:04.155Z,13.52
2022-12-09T07:34:57.877Z,11.75
2022-12-09T07:39:51.451Z,11.48
2022-12-09T07:44:44.964Z,20.45
2022-12-09T07:49:40.000Z,15.73
2022-12-09T07:54:33.919Z,14.10
2022-12-09T07:59:27.183Z,13.25
2022-12-09T08:04:20.882Z,12.10
2022-12-09T08:09:16.101Z,15.10
2022-12-09T08:14:14.252Z,13.73
2022-12-09T08:19:08.161Z,13.93
2022-12-09T08:24:03.470Z,14.98
2022-12-09T08:28:59.023Z,15.55
2022-12-09T08:33:54.133Z,15.60
2022-12-09T08:38:48.736Z,13.35
2022-12-09T08:43:43.055Z,12.82
2022-12-09T08:48:39.838Z,11.77
2022-12-09T08:53:39.941Z,14.07
2022-12-09T08:59:06.090Z,14.43
2022-12-09T09:04:02.762Z,11.82
2022-12-09T09:08:57.572Z,12.35
2022-12-09T09:13:52.477Z,15.60
2022-12-09T09:18:49.875Z,21.88
2022-12-09T09:23:45.384Z,14.23
2022-12-09T09:28:39.217Z,13.90
2022-12-09T09:33:32.732Z,12.02
2022-12-09T09:38:27.040Z,11.32
2022-12-09T09:43:25.279Z,9.65
2022-12-09T09:48:21.543Z,11.48
2022-12-09T09:53:20.321Z,10.60
2022-12-09T09:58:19.791Z,12.32
2022-12-09T10:03:22.167Z,14.50
2022-12-09T10:08:32.408Z,13.32
2022-12-09T10:13:38.682Z,14.60
2022-12-09T10:18:38.691Z,15.55
2022-12-09T10:23:34.132Z,14.80
2022-12-09T10:28:30.652Z,16.58
2022-12-09T10:33:30.539Z,16.30
2022-12-09T10:38:26.900Z,15.27
2022-12-09T10:43:38.891Z,18.15
2022-12-09T10:48:36.451Z,19.83
2022-12-09T10:53:33.164Z,19.15
2022-12-09T10:58:29.032Z,20.58
2022-12-09T11:03:28.725Z,21.48
2022-12-09T11:08:24.158Z,21.57
2022-12-09T11:13:21.654Z,24.13
2022-12-09T11:18:21.171Z,21.65
2022-12-09T11:23:17.919Z,20.97
2022-12-09T11:28:26.159Z,30.42
2022-12-09T11:33:27.240Z,20.90
2022-12-09T11:38:36.191Z,28.55
2022-12-09T11:43:42.084Z,23.52
2022-12-09T11:48:41.856Z,23.85
2022-12-09T11:53:41.944Z,27.38
2022-12-09T11:58:42.159Z,27.35
2022-12-09T12:03:39.596Z,32.05
2022-12-09T12:08:38.117Z,32.47
2022-12-09T12:13:41.570Z,33.40
2022-12-09T12:18:43.239Z,34.35
2022-12-09T12:23:52.030Z,34.95
2022-12-09T12:29:11.418Z,37.47
2022-12-09T12:34:26.008Z,34.10
2022-12-09T12:39:34.888Z,34.75
2022-12-09T12:45:00.640Z,33.15
2022-12-09T12:50:20.050Z,30.75
2022-12-09T12:55:24.726Z,29.00
2022-12-09T13:00:22.560Z,31.58
2022-12-09T13:05:22.558Z,28.45
2022-12-09T13:10:30.660Z,29.75
2022-12-09T13:15:32.447Z,31.15
2022-12-09T13:20:31.202Z,28.52
2022-12-09T13:25:35.729Z,28.33
2022-12-09T13:30:37.427Z,25.90
2022-12-09T13:35:40.169Z,25.98
2022-12-09T13:40:36.937Z,28.58
2022-12-09T13:45:35.071Z,31.25
2022-12-09T13:50:33.210Z,26.35
2022-12-09T13:55:39.998Z,23.23
2022-12-09T14:00:35.908Z,21.73
2022-12-09T14:05:32.672Z,25.85
2022-12-09T14:10:40.696Z,23.77
2022-12-09T14:15:45.532Z,23.33
2022-12-09T14:20:40.897Z,25.95
2022-12-09T14:25:51.430Z,23.65
2022-12-09T14:30:52.481Z,24.42
2022-12-09T14:35:50.428Z,25.00
2022-12-09T14:40:56.646Z,29.13
2022-12-09T14:46:01.186Z,24.13
2022-12-09T14:51:20.520Z,23.02
2022-12-09T14:56:21.100Z,27.58
2022-12-09T15:06:17.983Z,24.00
2022-12-09T15:11:15.465Z,25.15
2022-12-09T15:16:11.051Z,28.23
2022-12-09T15:21:06.320Z,28.90
2022-12-09T15:26:01.692Z,21.33
2022-12-09T15:30:57.658Z,24.60
2022-12-09T15:35:55.094Z,31.80
2022-12-09T15:41:03.842Z,31.52
2022-12-09T15:45:57.834Z,24.10
2022-12-09T15:50:55.644Z,25.38
2022-12-09T15:55:54.225Z,24.67
2022-12-09T16:01:02.587Z,28.30
2022-12-09T16:06:01.902Z,29.63
2022-12-09T16:10:58.665Z,27.13
2022-12-09T16:15:57.323Z,28.40
2022-12-09T16:21:00.704Z,26.02
2022-12-09T16:26:07.399Z,28.15
2022-12-09T16:31:04.431Z,31.90
2022-12-09T16:36:02.312Z,27.13
2022-12-09T16:41:11.324Z,25.45
2022-12-09T16:46:37.354Z,28.42
2022-12-09T16:51:30.679Z,20.92
2022-12-09T16:56:44.080Z,23.48
2022-12-09T17:01:43.362Z,21.35
2022-12-09T17:06:36.715Z,21.75
2022-12-09T17:11:31.694Z,26.38
2022-12-09T17:16:26.989Z,24.42
2022-12-09T17:21:20.779Z,26.05
2022-12-09T17:26:22.499Z,19.27
2022-12-09T17:31:19.710Z,18.73
2022-12-09T17:36:19.218Z,17.00
2022-12-09T17:41:16.049Z,17.30
2022-12-09T17:46:13.100Z,35.75
2022-12-09T17:51:12.178Z,28.50
2022-12-09T17:56:15.030Z,26.02
2022-12-09T18:01:14.794Z,23.52
2022-12-09T18:06:10.376Z,30.25
2022-12-09T18:11:05.640Z,20.92
2022-12-09T18:15:59.590Z,19.52
2022-12-09T18:20:53.405Z,33.35
2022-12-09T18:25:49.339Z,17.60
2022-12-09T18:30:47.234Z,19.05
2022-12-09T18:35:44.068Z,21.90
2022-12-09T18:41:01.141Z,21.55
2022-12-09T18:45:56.737Z,19.60
2022-12-09T18:50:53.720Z,24.58
2022-12-09T18:56:00.345Z,30.35
2022-12-09T19:01:01.165Z,38.13
2022-12-09T19:05:59.527Z,18.80
2022-12-09T19:10:55.922Z,22.98
2022-12-09T19:15:49.589Z,16.95
2022-12-09T19:20:44.656Z,13.93
2022-12-09T19:25:42.168Z,15.38
2022-12-09T19:30:35.449Z,13.18
2022-12-09T19:35:28.804Z,13.35
2022-12-09T19:40:33.719Z,14.40
2022-12-09T19:45:27.351Z,19.30
2022-12-09T19:50:22.674Z,19.05
2022-12-09T19:55:16.039Z,20.58
2022-12-09T20:00:13.226Z,24.52
2022-12-09T20:05:07.519Z,25.23
2022-12-09T20:10:00.932Z,29.92
2022-12-09T20:14:54.202Z,56.08
2022-12-09T20:19:48.814Z,27.92
2022-12-09T20:24:43.335Z,29.10
2022-12-09T20:29:38.458Z,19.33
2022-12-09T20:34:32.175Z,23.42
2022-12-09T20:39:27.188Z,20.45
2022-12-09T20:44:24.459Z,24.65
2022-12-09T20:49:19.995Z,17.92
2022-12-09T20:54:14.088Z,21.08
2022-12-09T20:59:10.680Z,17.55
2022-12-09T21:04:06.011Z,17.13
2022-12-09T21:09:02.574Z,16.92
2022-12-09T21:14:01.532Z,16.23
2022-12-09T21:19:02.958Z,18.42
2022-12-09T21:23:56.682Z,15.50
2022-12-09T21:28:52.559Z,15.30
2022-12-09T21:33:48.150Z,17.02
2022-12-09T21:38:46.339Z,17.10
2022-12-09T21:43:42.840Z,16.63
2022-12-09T21:48:37.500Z,15.32
2022-12-09T21:53:32.053Z,15.00
2022-12-09T21:58:36.587Z,14.88
2022-12-09T22:03:32.167Z,14.98
2022-12-09T22:08:26.260Z,13.60
2022-12-09T22:13:23.255Z,14.93
2022-12-09T22:18:24.843Z,11.48
2022-12-09T22:23:23.085Z,13.43
2022-12-09T22:28:32.224Z,16.70
2022-12-09T22:33:27.339Z,15.85
2022-12-09T22:38:25.927Z,17.55
2022-12-09T22:43:33.662Z,16.60
2022-12-09T22:48:37.173Z,16.27
2022-12-09T22:53:30.703Z,16.13
2022-12-09T22:58:24.296Z,15.85
2022-12-09T23:03:21.120Z,15.00
2022-12-09T23:08:17.512Z,17.30
2022-12-09T23:13:14.150Z,34.80
2022-12-09T23:18:09.442Z,26.98
2022-12-09T23:23:05.936Z,27.35
2022-12-09T23:28:02.410Z,25.33
2022-12-09T23:32:58.696Z,24.98
2022-12-09T23:37:54.048Z,29.45
2022-12-09T23:42:48.058Z,20.73
2022-12-09T23:47:42.723Z,19.63
2022-12-09T23:52:38.187Z,15.07
2022-12-09T23:57:31.438Z,21.63
